Time;durP1;ratioP1;P1;durP2;ratioP2;P2;SDS_P1;SDS_P2;PMS_P1;PMS_P2;Temp;Humidity;BMP_temperature;BMP_pressure;BME280_temperature;BME280_humidity;BME280_pressure;Samples;Min_cycle;Max_cycle;Signal;HPM_P1;HPM_P2
2022/06/15 00:00:59;;;;;;;5.07;1.23;;;24.20;63.20;;;;;;5072016;28;20063;-87
2022/06/15 00:03:27;;;;;;;3.90;1.20;;;24.10;63.50;;;;;;5070320;28;20029;-87
2022/06/15 00:06:02;;;;;;;3.75;1.10;;;24.10;64.10;;;;;;5071989;28;20472;-87
2022/06/15 00:08:28;;;;;;;3.25;1.10;;;24.00;64.90;;;;;;5077893;28;20036;-87
2022/06/15 00:10:53;;;;;;;4.75;0.90;;;23.90;64.70;;;;;;5077261;28;20029;-88
2022/06/15 00:13:19;;;;;;;2.60;1.00;;;23.80;64.50;;;;;;5076980;28;20059;-87
2022/06/15 00:15:46;;;;;;;5.00;1.33;;;23.90;64.60;;;;;;5073621;28;20027;-87
2022/06/15 00:18:11;;;;;;;3.72;0.90;;;23.80;64.30;;;;;;5082935;28;20057;-87
2022/06/15 00:20:37;;;;;;;4.90;0.95;;;23.70;64.40;;;;;;5072314;28;20111;-88
2022/06/15 00:23:03;;;;;;;10.05;1.25;;;23.70;64.70;;;;;;5073714;28;20438;-87
2022/06/15 00:25:29;;;;;;;3.75;1.30;;;23.70;65.00;;;;;;5060904;28;20028;-87
2022/06/15 00:27:54;;;;;;;2.83;1.27;;;23.70;64.40;;;;;;5085712;28;20021;-87
2022/06/15 00:30:21;;;;;;;7.30;1.45;;;23.70;65.10;;;;;;5077034;28;20032;-87
2022/06/15 00:32:47;;;;;;;2.10;1.10;;;23.60;64.90;;;;;;5074107;28;20187;-87
2022/06/15 00:35:13;;;;;;;7.45;1.20;;;23.60;64.60;;;;;;5076321;28;20043;-87
2022/06/15 00:37:39;;;;;;;5.60;1.50;;;23.60;64.50;;;;;;5074160;28;20016;-88
2022/06/15 00:40:07;;;;;;;8.73;1.30;;;23.60;64.70;;;;;;5055418;28;20393;-87
2022/06/15 00:42:34;;;;;;;2.15;1.00;;;23.50;64.80;;;;;;5074266;28;20018;-88
2022/06/15 00:44:59;;;;;;;1.60;1.02;;;23.60;65.30;;;;;;5085153;28;20380;-88
2022/06/15 00:47:31;;;;;;;4.55;1.40;;;23.60;65.10;;;;;;5083197;28;20013;-87
2022/06/15 00:50:09;;;;;;;3.83;1.17;;;23.60;64.80;;;;;;5077283;28;20028;-88
2022/06/15 00:52:42;;;;;;;4.53;1.50;;;23.50;65.70;;;;;;5080234;28;20070;-87
2022/06/15 00:55:18;;;;;;;5.47;1.35;;;23.50;65.50;;;;;;5066385;28;20129;-88
2022/06/15 00:57:44;;;;;;;4.38;1.55;;;23.40;66.20;;;;;;5059783;28;20025;-87
2022/06/15 01:00:12;;;;;;;8.02;1.50;;;23.40;66.20;;;;;;5074452;28;20016;-88
2022/06/15 01:02:39;;;;;;;6.03;1.70;;;23.40;65.70;;;;;;5068796;28;20120;-87
2022/06/15 01:05:37;;;;;;;4.13;1.23;;;23.30;66.90;;;;;;5072860;28;20514;-87
2022/06/15 01:08:18;;;;;;;5.22;2.30;;;23.30;66.50;;;;;;5085656;28;20048;-87
2022/06/15 01:11:11;;;;;;;3.38;1.40;;;23.30;66.90;;;;;;5078496;28;20392;-87
2022/06/15 01:13:55;;;;;;;2.72;1.55;;;23.20;67.00;;;;;;5077715;28;20194;-87
2022/06/15 01:16:45;;;;;;;5.65;1.58;;;23.20;67.10;;;;;;5080265;28;20495;-87
2022/06/15 01:19:16;;;;;;;3.33;1.10;;;23.20;67.60;;;;;;5075757;28;20028;-87
2022/06/15 01:21:53;;;;;;;6.50;1.60;;;23.20;67.50;;;;;;5077018;28;20036;-87
2022/06/15 01:24:35;;;;;;;4.05;1.38;;;23.10;67.20;;;;;;5074594;28;20138;-87
2022/06/15 01:27:30;;;;;;;3.92;1.70;;;23.10;67.40;;;;;;5078638;28;20078;-87
2022/06/15 01:30:01;;;;;;;4.97;1.30;;;23.10;68.10;;;;;;5068071;28;20066;-87
2022/06/15 01:33:00;;;;;;;3.10;1.23;;;23.00;68.40;;;;;;5075397;28;20036;-87
2022/06/15 01:35:29;;;;;;;3.97;1.30;;;23.00;68.60;;;;;;5075567;28;20036;-87
2022/06/15 01:38:21;;;;;;;4.38;1.13;;;22.90;68.70;;;;;;5073050;28;20491;-87
2022/06/15 01:41:02;;;;;;;5.47;1.10;;;22.90;68.40;;;;;;5085215;28;20079;-87
2022/06/15 01:43:35;;;;;;;6.30;1.25;;;22.90;68.60;;;;;;5078319;28;20140;-87
2022/06/15 01:46:03;;;;;;;3.08;1.33;;;22.90;68.70;;;;;;5082229;28;20103;-87
2022/06/15 01:48:31;;;;;;;5.88;1.20;;;22.90;68.70;;;;;;5077173;28;20027;-87
2022/06/15 01:51:02;;;;;;;3.95;1.40;;;22.90;69.10;;;;;;5080261;28;20028;-87
2022/06/15 01:53:46;;;;;;;2.42;1.20;;;22.80;69.30;;;;;;5075077;28;20101;-88
2022/06/15 01:56:23;;;;;;;4.55;1.50;;;22.80;69.20;;;;;;5074634;28;20095;-87
2022/06/15 01:58:55;;;;;;;4.70;1.38;;;22.80;69.90;;;;;;5074316;28;20052;-87
2022/06/15 02:01:37;;;;;;;2.97;1.13;;;22.80;70.40;;;;;;5072601;28;20501;-87
2022/06/15 02:04:15;;;;;;;5.25;1.40;;;22.70;70.30;;;;;;5071783;28;20031;-87
2022/06/15 02:07:28;;;;;;;4.32;1.50;;;22.60;69.90;;;;;;5078113;28;20144;-87
2022/06/15 02:10:09;;;;;;;5.00;1.58;;;22.60;70.70;;;;;;4979958;28;20193;-88
2022/06/15 02:12:57;;;;;;;2.05;1.20;;;22.60;70.40;;;;;;4985501;28;20121;-87
2022/06/15 02:15:25;;;;;;;2.40;1.50;;;22.50;70.70;;;;;;5056763;28;20048;-87
2022/06/15 02:17:53;;;;;;;4.45;1.80;;;22.50;71.30;;;;;;5084720;28;20020;-87
2022/06/15 02:20:24;;;;;;;7.03;1.60;;;22.50;71.20;;;;;;5084425;28;20265;-87
2022/06/15 02:22:51;;;;;;;3.83;1.45;;;22.50;71.60;;;;;;5082134;28;20200;-87
2022/06/15 02:25:21;;;;;;;2.95;1.17;;;22.50;70.70;;;;;;5072896;28;20499;-87
2022/06/15 02:27:48;;;;;;;2.45;1.33;;;22.50;71.40;;;;;;5081434;28;20012;-87
2022/06/15 02:30:19;;;;;;;6.05;1.50;;;22.50;71.80;;;;;;5080023;28;20027;-87
2022/06/15 02:32:48;;;;;;;7.65;1.50;;;22.40;71.60;;;;;;5073285;28;20044;-87
2022/06/15 02:35:14;;;;;;;3.65;1.73;;;22.50;71.50;;;;;;5054096;28;20506;-87
2022/06/15 02:37:40;;;;;;;21.90;2.22;;;22.40;72.10;;;;;;5072184;28;20048;-87
2022/06/15 02:40:06;;;;;;;3.38;2.28;;;22.40;72.10;;;;;;5066655;28;20368;-87
2022/06/15 02:42:36;;;;;;;4.28;1.55;;;22.40;72.90;;;;;;5077251;28;20016;-87
2022/06/15 02:45:10;;;;;;;3.55;1.48;;;22.30;73.30;;;;;;5076825;28;20032;-87
2022/06/15 02:47:40;;;;;;;2.22;1.20;;;22.30;72.70;;;;;;5087911;28;20524;-87
2022/06/15 02:50:06;;;;;;;4.03;1.30;;;22.30;72.70;;;;;;5075460;28;20035;-87
2022/06/15 02:52:38;;;;;;;4.05;1.52;;;22.30;73.20;;;;;;5069718;28;20103;-87
2022/06/15 02:55:04;;;;;;;3.95;1.30;;;22.20;73.80;;;;;;5072824;28;20086;-88
2022/06/15 02:57:30;;;;;;;3.03;1.63;;;22.20;73.30;;;;;;5075468;28;20400;-87
2022/06/15 02:59:56;;;;;;;5.82;1.77;;;22.20;73.80;;;;;;5072248;28;20020;-87
2022/06/15 03:02:22;;;;;;;3.30;1.33;;;22.20;73.80;;;;;;5072799;28;20032;-87
2022/06/15 03:04:48;;;;;;;3.05;1.33;;;22.10;74.30;;;;;;5070919;28;20020;-87
2022/06/15 03:07:15;;;;;;;9.88;1.73;;;22.10;73.80;;;;;;5084000;28;20028;-87
2022/06/15 03:09:41;;;;;;;5.18;1.58;;;22.10;74.00;;;;;;5082508;28;20051;-87
2022/06/15 03:12:08;;;;;;;4.07;1.35;;;22.10;74.70;;;;;;5064964;28;20020;-87
2022/06/15 03:14:34;;;;;;;3.20;1.05;;;22.00;74.80;;;;;;5080579;28;20115;-87
2022/06/15 03:17:01;;;;;;;4.32;1.10;;;22.00;75.40;;;;;;5074151;28;20052;-87
2022/06/15 03:19:26;;;;;;;2.60;1.23;;;22.00;75.60;;;;;;5067629;28;20028;-87
2022/06/15 03:21:52;;;;;;;4.05;1.48;;;21.90;76.00;;;;;;5073698;28;20481;-87
2022/06/15 03:24:18;;;;;;;4.45;1.35;;;21.90;75.50;;;;;;5072336;28;20522;-87
2022/06/15 03:26:43;;;;;;;4.00;1.67;;;21.80;75.80;;;;;;5074956;28;20361;-87
2022/06/15 03:29:09;;;;;;;2.72;1.30;;;21.80;76.20;;;;;;5084947;28;20461;-87
2022/06/15 03:31:35;;;;;;;2.75;1.25;;;21.80;76.70;;;;;;5072926;28;20025;-87
2022/06/15 03:34:00;;;;;;;2.80;1.40;;;21.80;77.00;;;;;;5074528;28;20388;-87
2022/06/15 03:36:26;;;;;;;5.97;1.83;;;21.80;77.60;;;;;;5071543;28;20569;-87
2022/06/15 03:38:52;;;;;;;4.15;1.67;;;21.70;77.30;;;;;;5069542;28;20028;-87
2022/06/15 03:41:19;;;;;;;4.75;1.50;;;21.70;77.40;;;;;;5079799;28;20051;-87
2022/06/15 03:43:45;;;;;;;8.25;1.23;;;21.70;77.40;;;;;;5079369;28;20476;-87
2022/06/15 03:46:12;;;;;;;3.55;1.38;;;21.70;77.60;;;;;;5063141;28;20081;-87
2022/06/15 03:48:38;;;;;;;2.72;1.50;;;21.70;78.80;;;;;;5075542;28;20028;-87
2022/06/15 03:51:03;;;;;;;4.65;2.00;;;21.60;79.10;;;;;;5078721;28;20034;-87
2022/06/15 03:53:29;;;;;;;6.45;1.70;;;21.60;78.90;;;;;;5073961;28;20123;-87
2022/06/15 03:55:55;;;;;;;3.05;1.73;;;21.50;79.00;;;;;;5075739;28;20063;-85
2022/06/15 03:58:21;;;;;;;3.88;1.70;;;21.50;80.00;;;;;;5072100;28;20021;-85
2022/06/15 04:00:47;;;;;;;7.50;1.90;;;21.50;80.20;;;;;;5072892;28;20024;-85
2022/06/15 04:03:13;;;;;;;4.13;1.40;;;21.40;79.80;;;;;;5070756;28;20027;-85
2022/06/15 04:05:45;;;;;;;2.70;1.40;;;21.40;80.20;;;;;;5065802;28;20490;-85
2022/06/15 04:08:35;;;;;;;3.65;1.73;;;21.40;80.70;;;;;;5080473;28;20023;-85
2022/06/15 04:11:58;;;;;;;3.38;1.40;;;21.40;81.30;;;;;;5082376;28;20492;-86
2022/06/15 04:14:03;;;;;;;4.63;1.90;;;21.40;81.10;;;;;;5078377;28;20469;-85
2022/06/15 04:16:28;;;;;;;3.90;1.80;;;21.40;81.30;;;;;;5082104;28;20050;-85
2022/06/15 04:18:54;;;;;;;3.10;1.50;;;21.30;81.50;;;;;;5055761;28;20365;-85
2022/06/15 04:21:20;;;;;;;2.97;1.48;;;21.40;81.80;;;;;;5079377;28;20563;-85
2022/06/15 04:23:45;;;;;;;4.38;2.33;;;21.40;82.60;;;;;;5075829;28;20031;-85
2022/06/15 04:26:11;;;;;;;4.68;1.60;;;21.30;83.20;;;;;;5076397;28;20487;-85
2022/06/15 04:28:39;;;;;;;5.57;1.55;;;21.30;82.80;;;;;;5090841;28;20035;-85
2022/06/15 04:31:05;;;;;;;4.57;1.80;;;21.30;82.80;;;;;;5076562;28;20289;-85
2022/06/15 04:33:31;;;;;;;6.53;1.52;;;21.40;82.90;;;;;;5077573;28;20090;-85
2022/06/15 04:35:57;;;;;;;3.72;1.48;;;21.40;83.10;;;;;;5074534;28;20173;-85
2022/06/15 04:38:23;;;;;;;4.65;1.60;;;21.30;83.50;;;;;;5074708;28;20017;-85
2022/06/15 04:40:49;;;;;;;5.93;1.80;;;21.40;83.60;;;;;;5055924;28;20024;-85
2022/06/15 04:43:14;;;;;;;2.15;1.77;;;21.40;83.70;;;;;;5085100;28;20024;-85
2022/06/15 04:45:40;;;;;;;4.30;1.50;;;21.30;84.10;;;;;;5085032;28;20047;-85
2022/06/15 04:48:06;;;;;;;4.45;1.50;;;21.30;84.40;;;;;;5080013;28;20234;-85
2022/06/15 04:50:32;;;;;;;5.53;1.65;;;21.30;84.10;;;;;;5072307;28;20052;-85
2022/06/15 04:53:00;;;;;;;5.78;1.67;;;21.30;84.30;;;;;;5078847;28;20032;-85
2022/06/15 04:55:25;;;;;;;3.13;1.55;;;21.30;84.20;;;;;;5076802;28;20097;-85
2022/06/15 04:57:54;;;;;;;4.60;1.80;;;21.30;84.70;;;;;;5077633;28;20029;-85
2022/06/15 05:00:22;;;;;;;5.60;1.52;;;21.30;84.70;;;;;;5074585;28;20377;-85
2022/06/15 05:02:47;;;;;;;4.88;1.80;;;21.30;84.60;;;;;;5075262;28;20385;-85
2022/06/15 05:05:13;;;;;;;5.63;1.55;;;21.30;84.80;;;;;;5073351;28;20050;-85
2022/06/15 05:07:40;;;;;;;5.53;1.60;;;21.30;84.20;;;;;;5076244;28;20221;-85
2022/06/15 05:10:10;;;;;;;5.97;2.05;;;21.30;84.50;;;;;;5081995;28;20443;-85
2022/06/15 05:12:36;;;;;;;5.60;1.63;;;21.40;85.80;;;;;;5056446;28;20039;-82
2022/06/15 05:15:02;;;;;;;4.28;1.75;;;21.50;85.60;;;;;;5079878;28;20400;-82
2022/06/15 05:17:28;;;;;;;9.02;2.58;;;21.50;86.10;;;;;;5075671;28;20059;-82
2022/06/15 05:19:53;;;;;;;5.53;1.70;;;21.50;86.90;;;;;;5085463;28;20504;-82
2022/06/15 05:22:19;;;;;;;6.28;1.70;;;21.50;86.40;;;;;;5075187;28;20646;-82
2022/06/15 05:24:46;;;;;;;5.82;1.80;;;21.60;86.10;;;;;;5076379;28;20020;-82
2022/06/15 05:27:11;;;;;;;6.90;1.60;;;21.60;85.30;;;;;;5079597;28;20027;-82
2022/06/15 05:29:38;;;;;;;5.13;1.45;;;21.70;85.30;;;;;;5083636;28;20020;-80
2022/06/15 05:32:07;;;;;;;5.43;1.52;;;21.70;85.60;;;;;;5078040;28;20411;-81
2022/06/15 05:34:34;;;;;;;3.13;1.50;;;21.70;85.20;;;;;;5074400;28;20492;-81
2022/06/15 05:37:00;;;;;;;4.20;1.70;;;21.80;85.50;;;;;;5075321;28;20496;-81
2022/06/15 05:39:26;;;;;;;7.80;1.80;;;21.90;85.80;;;;;;5072969;28;20092;-81
2022/06/15 05:41:52;;;;;;;5.47;2.00;;;21.80;85.10;;;;;;5072357;28;20103;-81
2022/06/15 05:46:48;;;;;;;12.07;1.88;;;21.90;84.70;;;;;;5077929;28;20040;-81
2022/06/15 05:49:13;;;;;;;14.38;2.28;;;22.00;84.70;;;;;;5082309;28;20035;-82
2022/06/15 05:51:41;;;;;;;5.07;1.70;;;22.10;85.50;;;;;;5082887;28;20032;-82
2022/06/15 05:54:07;;;;;;;5.07;2.05;;;22.10;84.40;;;;;;5081614;28;20039;-81
2022/06/15 05:56:33;;;;;;;5.07;1.70;;;22.10;85.50;;;;;;5078448;28;20025;-82
2022/06/15 05:59:00;;;;;;;5.55;1.70;;;22.20;85.30;;;;;;5059223;28;20556;-81
2022/06/15 06:01:31;;;;;;;4.60;1.90;;;22.30;86.30;;;;;;5073314;28;20107;-81
2022/06/15 06:03:57;;;;;;;5.75;1.88;;;22.30;86.80;;;;;;5073245;28;20121;-82
2022/06/15 06:06:23;;;;;;;8.07;2.08;;;22.30;87.70;;;;;;5078490;28;20012;-81
2022/06/15 06:08:49;;;;;;;5.60;1.80;;;22.40;88.30;;;;;;5078281;28;20036;-81
2022/06/15 06:11:16;;;;;;;6.03;2.20;;;22.50;89.30;;;;;;5082335;28;20017;-81
2022/06/15 06:13:42;;;;;;;3.70;1.80;;;22.50;89.10;;;;;;5077259;28;20040;-81
2022/06/15 06:16:08;;;;;;;4.07;1.67;;;22.60;89.90;;;;;;5056025;28;20022;-81
2022/06/15 06:18:33;;;;;;;6.40;2.13;;;22.60;88.80;;;;;;5076469;28;20028;-83
2022/06/15 06:20:59;;;;;;;7.25;2.00;;;22.60;89.30;;;;;;5053944;28;20089;-83
2022/06/15 06:23:25;;;;;;;3.63;1.60;;;22.70;90.10;;;;;;5075343;28;20025;-83
2022/06/15 06:25:52;;;;;;;5.30;1.80;;;22.70;89.00;;;;;;5073502;28;20507;-84
2022/06/15 06:28:27;;;;;;;3.97;1.67;;;22.80;88.90;;;;;;5087275;28;20051;-83
2022/06/15 06:30:54;;;;;;;4.32;1.80;;;22.70;89.20;;;;;;5075689;28;20047;-84
2022/06/15 06:33:20;;;;;;;3.53;1.85;;;22.70;89.60;;;;;;5074132;28;20123;-83
2022/06/15 06:35:46;;;;;;;7.97;2.00;;;22.90;90.30;;;;;;5074882;28;20115;-84
2022/06/15 06:38:13;;;;;;;6.47;1.80;;;23.00;89.00;;;;;;5072517;28;20027;-83
2022/06/15 06:40:38;;;;;;;3.45;1.83;;;23.00;89.50;;;;;;5072323;28;20488;-83
2022/06/15 06:43:04;;;;;;;3.38;1.52;;;23.10;88.80;;;;;;5070994;28;20024;-84
2022/06/15 06:45:30;;;;;;;3.35;1.73;;;23.20;89.20;;;;;;5079766;28;20055;-84
2022/06/15 06:47:56;;;;;;;5.70;2.25;;;23.30;89.20;;;;;;5079563;28;20046;-84
2022/06/15 06:50:22;;;;;;;6.20;1.77;;;23.30;88.80;;;;;;5076491;28;20025;-84
2022/06/15 06:52:49;;;;;;;6.55;1.90;;;23.40;88.90;;;;;;5078377;28;20279;-84
2022/06/15 06:55:15;;;;;;;6.03;1.70;;;23.50;88.70;;;;;;5074365;28;20040;-84
2022/06/15 06:57:41;;;;;;;4.88;1.73;;;23.50;88.40;;;;;;5076296;28;20150;-84
2022/06/15 07:00:07;;;;;;;3.63;1.67;;;23.50;88.60;;;;;;5072571;28;20099;-84
2022/06/15 07:02:33;;;;;;;7.30;1.90;;;23.40;88.40;;;;;;5073406;28;20020;-83
2022/06/15 07:04:59;;;;;;;5.75;2.05;;;23.50;87.70;;;;;;5071122;28;20039;-84
2022/06/15 07:07:24;;;;;;;4.45;2.08;;;23.70;86.80;;;;;;5071547;28;20419;-84
2022/06/15 07:09:50;;;;;;;4.60;1.77;;;23.70;87.70;;;;;;5082168;28;20597;-84
2022/06/15 07:12:16;;;;;;;6.22;1.77;;;23.80;87.50;;;;;;5076289;28;20028;-84
2022/06/15 07:14:42;;;;;;;5.55;2.00;;;23.90;87.70;;;;;;5080376;28;20089;-84
2022/06/15 07:17:09;;;;;;;7.60;2.20;;;24.00;89.10;;;;;;5052282;28;20495;-83
2022/06/15 07:19:34;;;;;;;4.55;1.80;;;24.00;88.80;;;;;;5085668;28;20027;-84
2022/06/15 07:22:00;;;;;;;6.70;1.80;;;23.90;89.10;;;;;;5068766;28;20408;-84
2022/06/15 07:24:25;;;;;;;4.25;1.60;;;24.00;86.30;;;;;;5073977;28;20036;-84
2022/06/15 07:26:51;;;;;;;3.63;1.80;;;24.10;86.10;;;;;;5075442;28;20020;-84
2022/06/15 07:29:19;;;;;;;4.10;1.60;;;24.20;86.70;;;;;;5084274;28;20494;-84
2022/06/15 07:31:49;;;;;;;6.32;1.75;;;24.20;84.70;;;;;;5066653;28;20383;-84
2022/06/15 07:34:15;;;;;;;5.88;2.00;;;24.40;82.70;;;;;;5073330;28;20175;-84
2022/06/15 07:36:49;;;;;;;6.68;2.30;;;24.50;83.30;;;;;;5072242;28;20596;-84
2022/06/15 07:39:23;;;;;;;7.85;1.88;;;24.60;83.50;;;;;;5071250;28;20090;-84
2022/06/15 07:41:49;;;;;;;7.43;1.73;;;24.60;83.20;;;;;;5070335;28;20032;-84
2022/06/15 07:44:16;;;;;;;6.55;2.05;;;24.70;84.50;;;;;;5076382;28;20048;-84
2022/06/15 07:46:42;;;;;;;8.80;2.10;;;24.80;84.40;;;;;;5076335;28;20020;-84
2022/06/15 07:51:56;;;;;;;9.73;2.28;;;25.00;80.30;;;;;;5074816;28;20074;-84
2022/06/15 07:54:24;;;;;;;8.90;2.05;;;25.00;79.60;;;;;;5077470;28;20085;-84
2022/06/15 07:56:51;;;;;;;10.63;2.40;;;25.00;78.90;;;;;;5073389;28;20456;-84
2022/06/15 07:59:17;;;;;;;7.28;2.10;;;25.00;78.20;;;;;;5067579;28;20111;-83
2022/06/15 08:01:44;;;;;;;11.13;2.00;;;25.00;77.30;;;;;;5071406;28;20095;-83
2022/06/15 08:04:11;;;;;;;6.47;2.13;;;25.10;76.40;;;;;;5071749;28;20033;-82
2022/06/15 08:06:38;;;;;;;10.38;2.33;;;25.20;75.90;;;;;;5069875;28;20009;-82
2022/06/15 08:09:05;;;;;;;11.70;2.60;;;25.30;76.60;;;;;;5083908;28;20032;-82
2022/06/15 08:11:31;;;;;;;13.93;2.22;;;25.30;76.10;;;;;;5080713;28;20384;-82
2022/06/15 08:13:57;;;;;;;9.63;2.40;;;25.30;75.70;;;;;;5074974;28;20403;-83
2022/06/15 08:16:23;;;;;;;6.20;2.10;;;25.30;77.10;;;;;;5078753;28;20016;-82
2022/06/15 08:18:55;;;;;;;9.48;1.90;;;25.40;74.90;;;;;;5073777;28;20161;-82
2022/06/15 08:21:25;;;;;;;8.07;2.00;;;25.50;75.80;;;;;;5067868;28;20365;-82
2022/06/15 08:23:54;;;;;;;5.82;1.95;;;25.50;75.70;;;;;;5072086;28;20484;-82
2022/06/15 08:26:24;;;;;;;10.68;1.98;;;25.60;76.40;;;;;;5072960;28;20054;-82
2022/06/15 08:28:54;;;;;;;11.23;2.35;;;25.70;75.80;;;;;;5087024;28;20032;-82
2022/06/15 08:31:20;;;;;;;10.02;2.13;;;25.70;75.80;;;;;;5056310;28;20407;-82
2022/06/15 08:33:46;;;;;;;10.38;1.80;;;25.80;75.50;;;;;;5076509;28;20047;-82
2022/06/15 08:36:12;;;;;;;10.25;2.65;;;25.90;74.70;;;;;;5071670;28;20029;-83
2022/06/15 08:38:39;;;;;;;6.35;2.10;;;26.00;75.90;;;;;;5072608;28;20349;-82
2022/06/15 08:41:47;;;;;;;11.02;2.10;;;26.20;73.20;;;;;;5070139;28;20032;-82
2022/06/15 08:44:36;;;;;;;9.07;2.40;;;26.20;73.50;;;;;;5045813;28;20036;-82
2022/06/15 08:47:42;;;;;;;11.50;2.72;;;26.30;75.30;;;;;;5076725;28;20044;-83
2022/06/15 08:50:37;;;;;;;9.40;2.33;;;26.40;75.00;;;;;;5074544;28;20499;-82
2022/06/15 08:53:38;;;;;;;12.43;2.20;;;26.40;75.00;;;;;;5075242;28;20468;-82
2022/06/15 08:56:23;;;;;;;11.73;2.40;;;26.50;73.70;;;;;;5080094;28;20396;-83
2022/06/15 08:58:55;;;;;;;11.95;2.28;;;26.50;75.00;;;;;;5075814;28;20099;-82
2022/06/15 09:01:49;;;;;;;18.95;2.70;;;26.50;74.50;;;;;;5075637;28;20103;-82
2022/06/15 09:04:14;;;;;;;6.60;2.00;;;26.50;74.20;;;;;;5075118;28;20077;-82
2022/06/15 09:07:13;;;;;;;9.20;1.88;;;26.60;73.10;;;;;;5073082;28;20517;-82
2022/06/15 09:10:00;;;;;;;7.55;2.10;;;26.80;71.90;;;;;;5078007;28;20024;-82
2022/06/15 09:16:09;;;;;;;8.00;1.98;;;26.70;71.00;;;;;;5079603;28;20109;-82
2022/06/15 09:18:41;;;;;;;6.28;1.70;;;26.80;71.30;;;;;;5009376;28;20029;-83
2022/06/15 09:21:33;;;;;;;8.88;1.92;;;26.90;69.30;;;;;;4992916;28;20095;-82
2022/06/15 09:24:46;;;;;;;5.60;1.80;;;26.80;70.00;;;;;;5057460;28;20024;-81
2022/06/15 09:27:23;;;;;;;5.45;1.60;;;26.80;70.70;;;;;;5055724;28;20028;-82
2022/06/15 09:30:01;;;;;;;7.00;1.77;;;26.80;71.60;;;;;;5082383;28;20492;-82
2022/06/15 09:32:39;;;;;;;4.03;2.05;;;26.80;70.80;;;;;;5085172;28;20555;-82
2022/06/15 09:35:40;;;;;;;5.38;1.80;;;26.80;70.80;;;;;;5075577;28;20040;-82
2022/06/15 09:38:10;;;;;;;6.25;2.00;;;26.80;70.60;;;;;;5069667;28;20107;-82
2022/06/15 09:40:49;;;;;;;3.45;1.63;;;26.80;70.80;;;;;;5071867;28;20050;-82
2022/06/15 09:43:20;;;;;;;6.88;1.95;;;26.80;69.70;;;;;;5080225;28;20020;-82
2022/06/15 09:45:59;;;;;;;3.78;1.70;;;26.80;71.40;;;;;;5058619;28;20032;-82
2022/06/15 09:49:05;;;;;;;4.20;1.60;;;26.70;70.00;;;;;;5077608;28;20021;-82
2022/06/15 09:51:38;;;;;;;5.57;1.70;;;26.80;70.50;;;;;;5076396;28;20031;-82
2022/06/15 09:54:14;;;;;;;4.93;1.70;;;26.80;70.70;;;;;;5079113;28;20032;-82
2022/06/15 09:56:40;;;;;;;3.92;1.70;;;26.80;70.90;;;;;;5075192;28;20028;-82
2022/06/15 09:59:12;;;;;;;4.93;1.67;;;26.90;72.10;;;;;;5077235;28;20028;-82
2022/06/15 10:01:42;;;;;;;7.13;1.83;;;26.80;69.10;;;;;;5073689;28;20016;-82
2022/06/15 10:04:17;;;;;;;6.97;1.63;;;26.80;69.40;;;;;;5074029;28;20195;-82
2022/06/15 10:06:51;;;;;;;5.28;1.58;;;27.00;71.20;;;;;;5062418;28;20073;-82
2022/06/15 10:09:20;;;;;;;4.47;1.80;;;26.90;70.20;;;;;;5077619;28;20113;-82
2022/06/15 10:11:50;;;;;;;4.75;1.70;;;27.00;70.20;;;;;;5080834;28;20290;-82
2022/06/15 10:14:32;;;;;;;4.15;1.73;;;27.00;70.70;;;;;;5068145;28;20039;-82
2022/06/15 10:17:22;;;;;;;6.15;2.05;;;27.00;69.60;;;;;;5077123;28;20021;-82
2022/06/15 10:19:50;;;;;;;2.97;1.35;;;27.00;70.10;;;;;;5079834;28;20090;-81
2022/06/15 10:22:25;;;;;;;4.82;1.90;;;27.10;69.10;;;;;;5079127;28;20388;-83
2022/06/15 10:24:52;;;;;;;9.80;2.30;;;27.20;69.20;;;;;;5077749;28;20023;-84
2022/06/15 10:27:33;;;;;;;5.03;1.83;;;27.20;71.00;;;;;;5084322;28;20511;-83
2022/06/15 10:30:07;;;;;;;6.95;1.80;;;27.20;70.40;;;;;;5085885;28;20051;-83
2022/06/15 10:32:36;;;;;;;9.40;3.03;;;27.40;69.80;;;;;;5083222;28;20051;-83
2022/06/15 10:35:18;;;;;;;6.88;2.10;;;27.40;69.50;;;;;;5084434;28;20036;-83
2022/06/15 10:37:49;;;;;;;8.57;2.45;;;27.40;70.00;;;;;;5082218;28;20560;-84
2022/06/15 10:40:34;;;;;;;9.15;2.00;;;27.40;70.40;;;;;;5076102;28;20112;-85
2022/06/15 10:43:07;;;;;;;4.15;1.83;;;27.40;70.50;;;;;;5081164;28;20052;-85
2022/06/15 10:45:40;;;;;;;6.57;2.30;;;27.50;70.40;;;;;;5074707;28;20612;-83
2022/06/15 10:48:22;;;;;;;8.50;2.83;;;27.80;70.90;;;;;;5078101;28;20020;-83
2022/06/15 10:51:04;;;;;;;6.57;2.28;;;27.80;71.10;;;;;;5086581;28;20518;-83
2022/06/15 10:53:39;;;;;;;8.82;2.50;;;27.70;71.70;;;;;;5082550;28;20019;-83
2022/06/15 11:04:44;;;;;;;6.85;2.60;;;27.60;71.90;;;;;;5073393;28;20196;-85
2022/06/15 11:07:21;;;;;;;7.10;2.90;;;27.70;71.50;;;;;;5082643;28;20265;-84
2022/06/15 11:09:53;;;;;;;7.85;2.40;;;27.70;72.70;;;;;;5058834;28;20392;-84
2022/06/15 11:12:32;;;;;;;17.20;2.58;;;27.80;71.70;;;;;;5077228;28;20059;-84
2022/06/15 11:15:02;;;;;;;6.32;2.17;;;28.00;71.40;;;;;;5063316;28;20465;-84
2022/06/15 11:20:30;;;;;;;10.77;3.47;;;28.20;78.30;;;;;;5076191;28;20392;-84
2022/06/15 11:23:09;;;;;;;8.18;3.80;;;28.10;79.50;;;;;;5077188;28;20020;-84
2022/06/15 11:25:45;;;;;;;6.65;3.08;;;28.00;78.10;;;;;;5072973;28;20028;-84
2022/06/15 11:28:29;;;;;;;10.32;4.30;;;28.00;77.70;;;;;;5074427;28;20024;-84
2022/06/15 11:31:02;;;;;;;7.40;3.60;;;27.90;79.70;;;;;;5071507;28;20104;-84
2022/06/15 11:33:50;;;;;;;5.65;2.47;;;28.00;80.70;;;;;;5082813;28;20041;-84
2022/06/15 11:36:28;;;;;;;7.30;4.00;;;28.30;77.60;;;;;;5071398;28;20056;-84
2022/06/15 11:39:07;;;;;;;10.32;4.13;;;28.50;77.60;;;;;;5079792;28;20331;-84
2022/06/15 11:41:44;;;;;;;11.90;4.93;;;28.40;79.60;;;;;;5081423;28;20027;-84
2022/06/15 11:44:16;;;;;;;9.10;4.13;;;28.50;79.80;;;;;;5074237;28;20023;-84
2022/06/15 11:46:45;;;;;;;10.70;3.88;;;28.40;79.00;;;;;;5074714;28;20016;-84
2022/06/15 11:49:21;;;;;;;15.68;4.72;;;28.20;78.20;;;;;;5070959;28;20020;-85
2022/06/15 11:52:00;;;;;;;8.52;4.65;;;28.00;79.20;;;;;;5083567;28;20034;-84
2022/06/15 11:54:46;;;;;;;11.77;4.60;;;28.20;79.10;;;;;;5070593;28;20033;-84
2022/06/15 11:57:20;;;;;;;14.73;5.53;;;28.20;79.60;;;;;;5074543;28;20021;-84
2022/06/15 11:59:54;;;;;;;9.70;4.30;;;28.40;80.10;;;;;;5082642;28;20024;-84
2022/06/15 12:02:59;;;;;;;12.65;4.88;;;28.60;79.40;;;;;;5071056;28;20023;-84
2022/06/15 12:05:36;;;;;;;19.23;4.53;;;28.60;80.30;;;;;;5075519;28;20037;-84
2022/06/15 12:08:11;;;;;;;13.52;3.75;;;28.60;80.20;;;;;;5074215;28;20035;-84
2022/06/15 12:10:55;;;;;;;13.05;3.60;;;28.50;81.40;;;;;;5075706;28;20049;-84
2022/06/15 12:13:33;;;;;;;8.48;3.28;;;28.60;80.90;;;;;;5072006;28;20042;-84
2022/06/15 12:16:25;;;;;;;9.93;3.28;;;28.80;81.40;;;;;;5073070;28;20112;-84
2022/06/15 12:19:16;;;;;;;12.18;3.50;;;28.70;80.70;;;;;;5053147;28;20356;-84
2022/06/15 12:22:02;;;;;;;6.75;3.45;;;28.70;82.00;;;;;;5069850;28;20033;-84
2022/06/15 12:24:41;;;;;;;7.55;4.03;;;28.70;82.30;;;;;;5080912;28;20019;-84
2022/06/15 12:27:29;;;;;;;12.68;4.32;;;28.70;82.60;;;;;;5076342;28;20060;-85
2022/06/15 12:30:02;;;;;;;13.63;4.45;;;29.00;82.60;;;;;;5057402;28;20040;-85
2022/06/15 12:32:38;;;;;;;9.80;3.90;;;29.10;82.70;;;;;;5077722;28;20048;-84
2022/06/15 12:35:22;;;;;;;13.10;3.60;;;29.00;82.60;;;;;;5074355;28;20040;-84
2022/06/15 12:37:58;;;;;;;14.48;3.53;;;29.10;81.80;;;;;;5086013;28;20048;-84
2022/06/15 12:40:33;;;;;;;9.93;4.10;;;29.30;82.20;;;;;;5072528;28;20496;-84
2022/06/15 12:43:14;;;;;;;15.60;4.30;;;29.30;81.90;;;;;;5074567;28;20028;-84
2022/06/15 12:45:49;;;;;;;20.88;4.30;;;29.40;82.60;;;;;;5063759;28;20606;-84
2022/06/15 12:48:49;;;;;;;17.95;3.88;;;29.40;82.60;;;;;;5076282;28;20032;-84
2022/06/15 12:51:39;;;;;;;13.70;3.72;;;29.70;82.00;;;;;;5034625;28;20033;-84
2022/06/15 12:54:13;;;;;;;14.90;3.65;;;30.10;81.90;;;;;;5084174;28;20048;-85
2022/06/15 12:57:00;;;;;;;7.03;3.35;;;30.40;81.20;;;;;;5061099;28;20043;-84
2022/06/15 12:59:44;;;;;;;8.85;3.15;;;30.60;80.20;;;;;;5070100;28;20157;-84
2022/06/15 13:02:19;;;;;;;8.32;3.08;;;30.80;80.00;;;;;;5073388;28;20043;-84
2022/06/15 13:05:05;;;;;;;10.07;3.58;;;30.90;79.50;;;;;;5078649;28;20038;-84
2022/06/15 13:07:33;;;;;;;12.98;4.10;;;30.70;78.90;;;;;;5081155;28;20103;-84
2022/06/15 13:10:08;;;;;;;12.70;3.13;;;30.80;78.20;;;;;;5076229;28;20180;-85
2022/06/15 13:12:51;;;;;;;11.57;3.42;;;31.00;78.00;;;;;;5070504;28;20059;-84
2022/06/15 13:15:27;;;;;;;8.00;2.88;;;30.60;77.10;;;;;;5067449;28;20032;-84
2022/06/15 13:20:47;;;;;;;7.75;2.40;;;30.70;75.50;;;;;;5073651;28;20067;-85
2022/06/15 13:23:18;;;;;;;5.75;2.58;;;31.00;72.90;;;;;;5079324;28;20102;-84
2022/06/15 13:25:55;;;;;;;4.93;2.33;;;31.00;72.60;;;;;;5079745;28;20025;-84
2022/06/15 13:28:31;;;;;;;5.88;2.00;;;31.60;71.10;;;;;;5068736;28;20174;-85
2022/06/15 13:31:03;;;;;;;6.05;2.03;;;32.50;70.00;;;;;;5080916;28;20060;-84
2022/06/15 13:33:48;;;;;;;6.45;1.90;;;32.60;67.80;;;;;;5073051;28;20047;-85
2022/06/15 13:36:14;;;;;;;4.97;1.90;;;33.90;66.60;;;;;;5072738;28;20038;-84